sensor_id;sensor_type;location;lat;lon;timestamp;pressure;altitude;pressure_sealevel;temperature;humidity
68137;BME280;54939;50.826;9.030;2024-02-23T00:00:20;96051.16;;;10.04;72.71
68137;BME280;54939;50.826;9.030;2024-02-23T00:00:50;96056.47;;;10.04;72.66
68137;BME280;54939;50.826;9.030;2024-02-23T00:01:20;96057.31;;;10.04;72.64
68137;BME280;54939;50.826;9.030;2024-02-23T00:01:51;96061.59;;;10.05;72.61
68137;BME280;54939;50.826;9.030;2024-02-23T00:02:21;96079.44;;;10.05;72.59
68137;BME280;54939;50.826;9.030;2024-02-23T00:02:51;96066.13;;;10.05;72.45
68137;BME280;54939;50.826;9.030;2024-02-23T00:03:23;96076.97;;;10.03;72.69
68137;BME280;54939;50.826;9.030;2024-02-23T00:03:54;96075.13;;;10.04;72.48
68137;BME280;54939;50.826;9.030;2024-02-23T00:04:25;96070.84;;;10.03;72.39
68137;BME280;54939;50.826;9.030;2024-02-23T00:04:55;96072.72;;;10.02;72.36
68137;BME280;54939;50.826;9.030;2024-02-23T00:05:25;96068.41;;;10.01;72.63
68137;BME280;54939;50.826;9.030;2024-02-23T00:05:55;96072.91;;;10.01;72.63
68137;BME280;54939;50.826;9.030;2024-02-23T00:06:25;96079.88;;;10.02;72.57
68137;BME280;54939;50.826;9.030;2024-02-23T00:06:57;96076.41;;;10.01;72.50
68137;BME280;54939;50.826;9.030;2024-02-23T00:07:27;96084.41;;;10.01;72.47
68137;BME280;54939;50.826;9.030;2024-02-23T00:07:58;96098.53;;;10.02;72.28
68137;BME280;54939;50.826;9.030;2024-02-23T00:08:28;96101.22;;;10.02;72.45
68137;BME280;54939;50.826;9.030;2024-02-23T00:08:59;96089.72;;;10.01;72.69
68137;BME280;54939;50.826;9.030;2024-02-23T00:09:29;96090.31;;;10.03;72.62
68137;BME280;54939;50.826;9.030;2024-02-23T00:09:59;96111.25;;;10.00;72.53
68137;BME280;54939;50.826;9.030;2024-02-23T00:10:29;96091.38;;;10.02;72.70
68137;BME280;54939;50.826;9.030;2024-02-23T00:10:59;96105.47;;;10.03;72.37
68137;BME280;54939;50.826;9.030;2024-02-23T00:11:30;96091.38;;;10.02;72.33
68137;BME280;54939;50.826;9.030;2024-02-23T00:12:00;96096.91;;;10.01;72.34
68137;BME280;54939;50.826;9.030;2024-02-23T00:12:30;96107.34;;;10.02;72.35
68137;BME280;54939;50.826;9.030;2024-02-23T00:13:00;96105.47;;;10.03;72.44
68137;BME280;54939;50.826;9.030;2024-02-23T00:13:31;96098.53;;;10.02;72.27
68137;BME280;54939;50.826;9.030;2024-02-23T00:14:01;96111.88;;;10.02;72.15
68137;BME280;54939;50.826;9.030;2024-02-23T00:14:32;96106.53;;;10.02;72.48
68137;BME280;54939;50.826;9.030;2024-02-23T00:15:05;96107.56;;;10.01;72.18
68137;BME280;54939;50.826;9.030;2024-02-23T00:15:37;96107.56;;;10.01;72.52
68137;BME280;54939;50.826;9.030;2024-02-23T00:16:07;96119.25;;;10.00;72.51
68137;BME280;54939;50.826;9.030;2024-02-23T00:16:38;96117.41;;;10.00;72.50
68137;BME280;54939;50.826;9.030;2024-02-23T00:17:09;96108.38;;;10.01;72.27
68137;BME280;54939;50.826;9.030;2024-02-23T00:17:39;96113.91;;;10.00;72.14
68137;BME280;54939;50.826;9.030;2024-02-23T00:18:09;96119.03;;;10.01;72.31
68137;BME280;54939;50.826;9.030;2024-02-23T00:18:39;96113.72;;;10.01;72.27
68137;BME280;54939;50.826;9.030;2024-02-23T00:19:10;96119.03;;;10.01;72.16
68137;BME280;54939;50.826;9.030;2024-02-23T00:19:40;96110.03;;;10.02;72.07
68137;BME280;54939;50.826;9.030;2024-02-23T00:20:10;96111.88;;;10.02;72.36
68137;BME280;54939;50.826;9.030;2024-02-23T00:20:41;96111.88;;;10.02;72.08
68137;BME280;54939;50.826;9.030;2024-02-23T00:21:11;96120.69;;;10.02;72.24
68137;BME280;54939;50.826;9.030;2024-02-23T00:21:41;96124.13;;;10.03;72.22
68137;BME280;54939;50.826;9.030;2024-02-23T00:22:12;96106.75;;;10.00;72.13
68137;BME280;54939;50.826;9.030;2024-02-23T00:22:42;96127.25;;;10.00;72.10
68137;BME280;54939;50.826;9.030;2024-02-23T00:23:12;96122.13;;;9.98;72.25
68137;BME280;54939;50.826;9.030;2024-02-23T00:23:42;96126.63;;;9.98;72.50
68137;BME280;54939;50.826;9.030;2024-02-23T00:24:13;96125.59;;;9.99;72.06
68137;BME280;54939;50.826;9.030;2024-02-23T00:24:43;96132.59;;;9.93;72.02
68137;BME280;54939;50.826;9.030;2024-02-23T00:25:13;96136.25;;;9.99;72.25
68137;BME280;54939;50.826;9.030;2024-02-23T00:25:44;96142.03;;;9.96;72.06
68137;BME280;54939;50.826;9.030;2024-02-23T00:26:14;96134.03;;;9.96;72.33
68137;BME280;54939;50.826;9.030;2024-02-23T00:26:44;96128.09;;;9.94;71.92
68137;BME280;54939;50.826;9.030;2024-02-23T00:27:14;96137.91;;;10.00;72.08
68137;BME280;54939;50.826;9.030;2024-02-23T00:27:44;96138.94;;;9.99;71.91
68137;BME280;54939;50.826;9.030;2024-02-23T00:28:16;96144.25;;;9.99;71.96
68137;BME280;54939;50.826;9.030;2024-02-23T00:28:46;96142.41;;;9.99;72.02
68137;BME280;54939;50.826;9.030;2024-02-23T00:29:17;96144.06;;;10.00;72.22
68137;BME280;54939;50.826;9.030;2024-02-23T00:29:47;96153.69;;;10.01;71.98
68137;BME280;54939;50.826;9.030;2024-02-23T00:30:17;96156.56;;;10.00;71.72
68137;BME280;54939;50.826;9.030;2024-02-23T00:30:47;96164.56;;;10.00;72.08
68137;BME280;54939;50.826;9.030;2024-02-23T00:31:18;96161.06;;;9.99;72.23
68137;BME280;54939;50.826;9.030;2024-02-23T00:31:48;96161.06;;;9.99;72.12
68137;BME280;54939;50.826;9.030;2024-02-23T00:32:18;96168.25;;;9.99;72.00
68137;BME280;54939;50.826;9.030;2024-02-23T00:32:48;96163.72;;;9.99;72.15
68137;BME280;54939;50.826;9.030;2024-02-23T00:33:18;96168.44;;;9.97;72.02
68137;BME280;54939;50.826;9.030;2024-02-23T00:33:49;96167.41;;;9.98;72.12
68137;BME280;54939;50.826;9.030;2024-02-23T00:34:19;96171.94;;;9.98;72.03
68137;BME280;54939;50.826;9.030;2024-02-23T00:34:49;96170.28;;;9.97;72.15
68137;BME280;54939;50.826;9.030;2024-02-23T00:35:19;96171.09;;;9.97;72.07
68137;BME280;54939;50.826;9.030;2024-02-23T00:35:49;96165.78;;;9.97;72.21
68137;BME280;54939;50.826;9.030;2024-02-23T00:36:19;96172.13;;;9.96;72.32
68137;BME280;54939;50.826;9.030;2024-02-23T00:36:50;96169.72;;;9.95;72.04
68137;BME280;54939;50.826;9.030;2024-02-23T00:37:20;96179.34;;;9.96;72.14
68137;BME280;54939;50.826;9.030;2024-02-23T00:37:50;96182.00;;;9.96;72.32
68137;BME280;54939;50.826;9.030;2024-02-23T00:38:20;96182.59;;;9.98;72.10
68137;BME280;54939;50.826;9.030;2024-02-23T00:38:51;96185.25;;;9.98;72.23
68137;BME280;54939;50.826;9.030;2024-02-23T00:39:21;96190.59;;;9.98;72.10
68137;BME280;54939;50.826;9.030;2024-02-23T00:39:51;96188.94;;;9.97;72.21
68137;BME280;54939;50.826;9.030;2024-02-23T00:40:21;96193.03;;;9.99;72.27
68137;BME280;54939;50.826;9.030;2024-02-23T00:40:53;96192.22;;;9.99;72.18
68137;BME280;54939;50.826;9.030;2024-02-23T00:41:23;96183.22;;;10.00;72.10
68137;BME280;54939;50.826;9.030;2024-02-23T00:41:54;96190.19;;;10.01;72.10
68137;BME280;54939;50.826;9.030;2024-02-23T00:42:24;96179.72;;;9.99;72.04
68137;BME280;54939;50.826;9.030;2024-02-23T00:42:54;96182.38;;;9.99;71.86
68137;BME280;54939;50.826;9.030;2024-02-23T00:43:24;96182.19;;;10.01;71.96
68137;BME280;54939;50.826;9.030;2024-02-23T00:43:55;96178.69;;;10.00;72.05
68137;BME280;54939;50.826;9.030;2024-02-23T00:44:25;96188.34;;;10.01;71.94
68137;BME280;54939;50.826;9.030;2024-02-23T00:44:55;96185.06;;;9.99;71.93
68137;BME280;54939;50.826;9.030;2024-02-23T00:45:25;96191.41;;;9.98;71.97
68137;BME280;54939;50.826;9.030;2024-02-23T00:45:55;96196.72;;;9.98;72.00
68137;BME280;54939;50.826;9.030;2024-02-23T00:46:26;96196.72;;;9.98;71.86
68137;BME280;54939;50.826;9.030;2024-02-23T00:46:56;96193.03;;;9.99;72.26
68137;BME280;54939;50.826;9.030;2024-02-23T00:47:31;96198.38;;;9.99;72.00
68137;BME280;54939;50.826;9.030;2024-02-23T00:48:01;96200.22;;;9.99;71.97
68137;BME280;54939;50.826;9.030;2024-02-23T00:48:32;96209.03;;;9.99;71.96
68137;BME280;54939;50.826;9.030;2024-02-23T00:49:02;96206.38;;;9.99;72.09
68137;BME280;54939;50.826;9.030;2024-02-23T00:49:32;96204.31;;;10.01;72.08
68137;BME280;54939;50.826;9.030;2024-02-23T00:50:02;96202.88;;;9.99;71.90
68137;BME280;54939;50.826;9.030;2024-02-23T00:50:32;96217.22;;;9.98;72.29
68137;BME280;54939;50.826;9.030;2024-02-23T00:51:03;96206.56;;;9.98;72.05
68137;BME280;54939;50.826;9.030;2024-02-23T00:51:33;96207.19;;;10.00;71.94
68137;BME280;54939;50.826;9.030;2024-02-23T00:52:03;96219.50;;;10.01;71.91
68137;BME280;54939;50.826;9.030;2024-02-23T00:52:33;96212.53;;;10.00;71.80
68137;BME280;54939;50.826;9.030;2024-02-23T00:53:03;96214.38;;;9.99;72.01
68137;BME280;54939;50.826;9.030;2024-02-23T00:53:34;96215.59;;;9.97;71.96
68137;BME280;54939;50.826;9.030;2024-02-23T00:54:04;96233.03;;;9.99;72.16
68137;BME280;54939;50.826;9.030;2024-02-23T00:54:34;96226.88;;;9.99;71.85
68137;BME280;54939;50.826;9.030;2024-02-23T00:55:05;96235.06;;;9.97;71.94
68137;BME280;54939;50.826;9.030;2024-02-23T00:55:35;96232.19;;;9.99;71.81
68137;BME280;54939;50.826;9.030;2024-02-23T00:56:05;96242.84;;;9.99;71.94
68137;BME280;54939;50.826;9.030;2024-02-23T00:56:35;96244.50;;;10.00;71.85
68137;BME280;54939;50.826;9.030;2024-02-23T00:57:06;96249.84;;;10.00;71.79
68137;BME280;54939;50.826;9.030;2024-02-23T00:57:38;96236.72;;;9.98;71.87
68137;BME280;54939;50.826;9.030;2024-02-23T00:58:08;96243.88;;;9.98;72.14
68137;BME280;54939;50.826;9.030;2024-02-23T00:58:39;96245.97;;;9.96;72.04
68137;BME280;54939;50.826;9.030;2024-02-23T00:59:09;96248.19;;;9.99;71.94
68137;BME280;54939;50.826;9.030;2024-02-23T00:59:39;96245.53;;;9.99;71.85
68137;BME280;54939;50.826;9.030;2024-02-23T01:00:09;96250.84;;;9.99;71.90
68137;BME280;54939;50.826;9.030;2024-02-23T01:00:40;96248.19;;;9.99;71.63
68137;BME280;54939;50.826;9.030;2024-02-23T01:01:10;96252.69;;;9.98;72.11
68137;BME280;54939;50.826;9.030;2024-02-23T01:01:40;96244.69;;;9.98;72.00
68137;BME280;54939;50.826;9.030;2024-02-23T01:02:10;96248.63;;;9.96;71.96
68137;BME280;54939;50.826;9.030;2024-02-23T01:02:40;96242.84;;;9.99;71.81
68137;BME280;54939;50.826;9.030;2024-02-23T01:03:11;96245.53;;;9.99;71.97
68137;BME280;54939;50.826;9.030;2024-02-23T01:03:41;96250.84;;;9.99;72.00
68137;BME280;54939;50.826;9.030;2024-02-23T01:04:11;96245.53;;;9.99;72.17
68137;BME280;54939;50.826;9.030;2024-02-23T01:04:41;96245.31;;;10.00;72.17
68137;BME280;54939;50.826;9.030;2024-02-23T01:05:11;96249.84;;;10.00;71.79
68137;BME280;54939;50.826;9.030;2024-02-23T01:05:43;96246.34;;;9.99;71.75
68137;BME280;54939;50.826;9.030;2024-02-23T01:06:13;96249.84;;;10.00;72.26
68137;BME280;54939;50.826;9.030;2024-02-23T01:06:43;96247.16;;;10.00;71.74
68137;BME280;54939;50.826;9.030;2024-02-23T01:07:13;96254.34;;;9.99;71.87
68137;BME280;54939;50.826;9.030;2024-02-23T01:07:43;96254.13;;;10.01;71.97
68137;BME280;54939;50.826;9.030;2024-02-23T01:08:14;96257.63;;;10.01;72.04
68137;BME280;54939;50.826;9.030;2024-02-23T01:08:44;96260.28;;;10.01;71.74
68137;BME280;54939;50.826;9.030;2024-02-23T01:09:14;96255.78;;;10.02;71.83
68137;BME280;54939;50.826;9.030;2024-02-23T01:09:46;96262.94;;;10.01;71.72
68137;BME280;54939;50.826;9.030;2024-02-23T01:10:16;96255.97;;;10.00;71.79
68137;BME280;54939;50.826;9.030;2024-02-23T01:10:47;96263.16;;;10.00;71.71
68137;BME280;54939;50.826;9.030;2024-02-23T01:11:17;96257.00;;;9.99;71.67
68137;BME280;54939;50.826;9.030;2024-02-23T01:11:47;96263.97;;;10.00;71.70
68137;BME280;54939;50.826;9.030;2024-02-23T01:12:18;96262.94;;;10.01;71.75
68137;BME280;54939;50.826;9.030;2024-02-23T01:12:48;96260.50;;;10.00;71.77
68137;BME280;54939;50.826;9.030;2024-02-23T01:13:18;96257.81;;;10.00;72.02
68137;BME280;54939;50.826;9.030;2024-02-23T01:13:48;96255.16;;;10.00;71.77
68137;BME280;54939;50.826;9.030;2024-02-23T01:14:18;96254.13;;;10.01;71.97
68137;BME280;54939;50.826;9.030;2024-02-23T01:14:48;96262.34;;;9.99;71.94
68137;BME280;54939;50.826;9.030;2024-02-23T01:15:19;96257.81;;;10.00;71.79
68137;BME280;54939;50.826;9.030;2024-02-23T01:15:49;96254.53;;;9.98;71.95
68137;BME280;54939;50.826;9.030;2024-02-23T01:16:19;96255.38;;;9.98;71.83
68137;BME280;54939;50.826;9.030;2024-02-23T01:16:49;96261.50;;;9.99;72.11
68137;BME280;54939;50.826;9.030;2024-02-23T01:17:20;96254.34;;;9.99;71.88
68137;BME280;54939;50.826;9.030;2024-02-23T01:17:50;96261.94;;;10.02;72.13
68137;BME280;54939;50.826;9.030;2024-02-23T01:18:20;96259.47;;;10.01;72.04
68137;BME280;54939;50.826;9.030;2024-02-23T01:18:50;96263.78;;;10.02;71.88
68137;BME280;54939;50.826;9.030;2024-02-23T01:19:20;96263.97;;;10.00;71.89
68137;BME280;54939;50.826;9.030;2024-02-23T01:19:50;96264.78;;;10.01;71.98
68137;BME280;54939;50.826;9.030;2024-02-23T01:20:22;96269.31;;;10.00;71.74
68137;BME280;54939;50.826;9.030;2024-02-23T01:20:52;96272.59;;;10.02;71.89
68137;BME280;54939;50.826;9.030;2024-02-23T01:21:22;96271.78;;;10.02;71.91
68137;BME280;54939;50.826;9.030;2024-02-23T01:21:52;96268.28;;;10.01;71.80
68137;BME280;54939;50.826;9.030;2024-02-23T01:22:29;96274.44;;;10.02;72.12
68137;BME280;54939;50.826;9.030;2024-02-23T01:22:59;96269.94;;;10.02;71.76
68137;BME280;54939;50.826;9.030;2024-02-23T01:23:29;96273.63;;;10.01;71.79
68137;BME280;54939;50.826;9.030;2024-02-23T01:23:59;96258.84;;;9.99;71.83
68137;BME280;54939;50.826;9.030;2024-02-23T01:24:30;96264.19;;;9.99;71.98
68137;BME280;54939;50.826;9.030;2024-02-23T01:25:00;96269.50;;;9.99;72.03
68137;BME280;54939;50.826;9.030;2024-02-23T01:25:31;96266.84;;;9.99;71.79
68137;BME280;54939;50.826;9.030;2024-02-23T01:26:01;96270.13;;;10.01;71.79
68137;BME280;54939;50.826;9.030;2024-02-23T01:26:32;96270.94;;;10.01;72.09
68137;BME280;54939;50.826;9.030;2024-02-23T01:27:02;96272.59;;;10.02;72.00
68137;BME280;54939;50.826;9.030;2024-02-23T01:27:32;96262.94;;;10.01;71.63
68137;BME280;54939;50.826;9.030;2024-02-23T01:28:03;96265.63;;;10.01;71.82
68137;BME280;54939;50.826;9.030;2024-02-23T01:28:33;96265.81;;;10.00;72.00
68137;BME280;54939;50.826;9.030;2024-02-23T01:29:03;96266.84;;;9.99;71.85
68137;BME280;54939;50.826;9.030;2024-02-23T01:29:33;96257.81;;;10.00;71.98
68137;BME280;54939;50.826;9.030;2024-02-23T01:30:04;96263.34;;;9.98;71.81
68137;BME280;54939;50.826;9.030;2024-02-23T01:30:34;96267.66;;;9.99;71.79
68137;BME280;54939;50.826;9.030;2024-02-23T01:31:05;96271.56;;;9.97;72.01
68137;BME280;54939;50.826;9.030;2024-02-23T01:31:40;96267.88;;;9.98;72.06
68137;BME280;54939;50.826;9.030;2024-02-23T01:32:10;96264.38;;;9.97;71.90
68137;BME280;54939;50.826;9.030;2024-02-23T01:32:40;96270.53;;;9.98;71.88
68137;BME280;54939;50.826;9.030;2024-02-23T01:33:11;96268.06;;;9.96;71.85
68137;BME280;54939;50.826;9.030;2024-02-23T01:33:41;96266.84;;;9.99;71.93
68137;BME280;54939;50.826;9.030;2024-02-23T01:34:11;96267.66;;;9.99;71.92
68137;BME280;54939;50.826;9.030;2024-02-23T01:34:41;96271.97;;;10.00;72.01
68137;BME280;54939;50.826;9.030;2024-02-23T01:35:11;96271.16;;;10.00;71.84
68137;BME280;54939;50.826;9.030;2024-02-23T01:35:41;96271.34;;;9.98;71.81
68137;BME280;54939;50.826;9.030;2024-02-23T01:36:12;96268.69;;;9.98;71.86
68137;BME280;54939;50.826;9.030;2024-02-23T01:36:42;96275.88;;;9.98;72.00
68137;BME280;54939;50.826;9.030;2024-02-23T01:37:12;96274.84;;;9.99;72.16
68137;BME280;54939;50.826;9.030;2024-02-23T01:37:42;96271.97;;;10.00;72.11
68137;BME280;54939;50.826;9.030;2024-02-23T01:38:12;96281.81;;;10.00;71.81
68137;BME280;54939;50.826;9.030;2024-02-23T01:38:48;96292.28;;;10.01;71.80
68137;BME280;54939;50.826;9.030;2024-02-23T01:39:19;96286.13;;;10.01;71.80
68137;BME280;54939;50.826;9.030;2024-02-23T01:39:49;96285.28;;;10.00;71.88
68137;BME280;54939;50.826;9.030;2024-02-23T01:40:19;96284.47;;;10.00;71.67
68137;BME280;54939;50.826;9.030;2024-02-23T01:40:49;96289.81;;;10.00;71.98
68137;BME280;54939;50.826;9.030;2024-02-23T01:41:19;96282.84;;;9.99;71.81
68137;BME280;54939;50.826;9.030;2024-02-23T01:41:50;96287.13;;;10.00;71.79
68137;BME280;54939;50.826;9.030;2024-02-23T01:42:20;96287.53;;;9.97;71.70
68137;BME280;54939;50.826;9.030;2024-02-23T01:43:00;96295.13;;;10.00;71.77
68137;BME280;54939;50.826;9.030;2024-02-23T01:43:30;96297.81;;;10.00;71.87
68137;BME280;54939;50.826;9.030;2024-02-23T01:44:01;96295.13;;;10.00;71.75
68137;BME280;54939;50.826;9.030;2024-02-23T01:44:31;96298.81;;;9.99;71.77
68137;BME280;54939;50.826;9.030;2024-02-23T01:45:01;96310.31;;;9.99;71.80
68137;BME280;54939;50.826;9.030;2024-02-23T01:45:33;96311.94;;;10.00;71.81
68137;BME280;54939;50.826;9.030;2024-02-23T01:46:03;96304.97;;;9.99;71.77
68137;BME280;54939;50.826;9.030;2024-02-23T01:46:34;96312.78;;;10.01;71.66
68137;BME280;54939;50.826;9.030;2024-02-23T01:47:05;96313.59;;;10.01;71.62
68137;BME280;54939;50.826;9.030;2024-02-23T01:47:35;96313.59;;;10.01;71.73
68137;BME280;54939;50.826;9.030;2024-02-23T01:48:05;96318.91;;;10.01;71.85
68137;BME280;54939;50.826;9.030;2024-02-23T01:48:36;96323.22;;;10.02;71.91
68137;BME280;54939;50.826;9.030;2024-02-23T01:49:06;96327.75;;;10.02;71.64
68137;BME280;54939;50.826;9.030;2024-02-23T01:49:38;96332.00;;;10.03;71.93
68137;BME280;54939;50.826;9.030;2024-02-23T01:50:08;96332.00;;;10.03;71.90
68137;BME280;54939;50.826;9.030;2024-02-23T01:50:39;96340.00;;;10.03;72.21
68137;BME280;54939;50.826;9.030;2024-02-23T01:51:10;96344.31;;;10.04;71.77
68137;BME280;54939;50.826;9.030;2024-02-23T01:51:41;96344.31;;;10.04;71.81
68137;BME280;54939;50.826;9.030;2024-02-23T01:52:11;96350.66;;;10.03;71.80
68137;BME280;54939;50.826;9.030;2024-02-23T01:52:42;96342.69;;;10.03;71.74
68137;BME280;54939;50.826;9.030;2024-02-23T01:53:13;96348.81;;;10.03;71.98
68137;BME280;54939;50.826;9.030;2024-02-23T01:53:43;96349.66;;;10.04;72.17
68137;BME280;54939;50.826;9.030;2024-02-23T01:54:14;96352.31;;;10.04;71.74
68137;BME280;54939;50.826;9.030;2024-02-23T01:54:45;96337.34;;;10.03;71.53
68137;BME280;54939;50.826;9.030;2024-02-23T01:55:15;96351.72;;;10.02;71.43
68137;BME280;54939;50.826;9.030;2024-02-23T01:55:45;96347.63;;;9.99;71.41
68137;BME280;54939;50.826;9.030;2024-02-23T01:56:17;96354.41;;;9.95;71.48
68137;BME280;54939;50.826;9.030;2024-02-23T01:56:50;96362.16;;;9.97;71.60
68137;BME280;54939;50.826;9.030;2024-02-23T01:57:20;96360.56;;;9.96;71.72
68137;BME280;54939;50.826;9.030;2024-02-23T01:57:51;96357.88;;;9.96;71.76
68137;BME280;54939;50.826;9.030;2024-02-23T01:58:22;96362.59;;;9.94;71.62
68137;BME280;54939;50.826;9.030;2024-02-23T01:58:52;96360.94;;;9.93;71.70
68137;BME280;54939;50.826;9.030;2024-02-23T01:59:23;96361.78;;;9.93;71.86
68137;BME280;54939;50.826;9.030;2024-02-23T01:59:53;96359.09;;;9.93;71.91
68137;BME280;54939;50.826;9.030;2024-02-23T02:00:24;96352.97;;;9.93;71.88
68137;BME280;54939;50.826;9.030;2024-02-23T02:00:55;96356.66;;;9.92;71.66
68137;BME280;54939;50.826;9.030;2024-02-23T02:01:25;96352.34;;;9.91;71.70
68137;BME280;54939;50.826;9.030;2024-02-23T02:01:56;96348.84;;;9.90;71.78
68137;BME280;54939;50.826;9.030;2024-02-23T02:02:26;96348.03;;;9.89;71.62
68137;BME280;54939;50.826;9.030;2024-02-23T02:02:57;96349.66;;;9.91;71.56
68137;BME280;54939;50.826;9.030;2024-02-23T02:03:27;96348.66;;;9.92;71.92
68137;BME280;54939;50.826;9.030;2024-02-23T02:03:58;96348.44;;;9.93;71.47
68137;BME280;54939;50.826;9.030;2024-02-23T02:04:28;96352.75;;;9.94;71.71
68137;BME280;54939;50.826;9.030;2024-02-23T02:04:58;96347.22;;;9.96;71.73
68137;BME280;54939;50.826;9.030;2024-02-23T02:05:29;96356.84;;;9.97;71.47
68137;BME280;54939;50.826;9.030;2024-02-23T02:05:59;96351.31;;;9.98;71.65
68137;BME280;54939;50.826;9.030;2024-02-23T02:06:30;96352.13;;;9.99;71.63
68137;BME280;54939;50.826;9.030;2024-02-23T02:07:00;96354.59;;;10.00;71.38
68137;BME280;54939;50.826;9.030;2024-02-23T02:07:31;96351.09;;;10.00;71.68
68137;BME280;54939;50.826;9.030;2024-02-23T02:08:01;96353.97;;;9.98;71.62
68137;BME280;54939;50.826;9.030;2024-02-23T02:08:32;96345.97;;;9.98;71.76
68137;BME280;54939;50.826;9.030;2024-02-23T02:09:03;96350.47;;;9.98;71.55
68137;BME280;54939;50.826;9.030;2024-02-23T02:09:33;96350.47;;;9.98;71.61
68137;BME280;54939;50.826;9.030;2024-02-23T02:10:04;96344.34;;;9.97;71.93
68137;BME280;54939;50.826;9.030;2024-02-23T02:10:36;96342.69;;;9.96;71.61
68137;BME280;54939;50.826;9.030;2024-02-23T02:11:06;96348.84;;;9.97;71.56
68137;BME280;54939;50.826;9.030;2024-02-23T02:11:44;96349.66;;;9.97;71.68
68137;BME280;54939;50.826;9.030;2024-02-23T02:12:15;96351.50;;;9.97;71.77
68137;BME280;54939;50.826;9.030;2024-02-23T02:12:45;96349.66;;;9.97;71.72
68137;BME280;54939;50.826;9.030;2024-02-23T02:13:15;96349.47;;;9.99;71.95
68137;BME280;54939;50.826;9.030;2024-02-23T02:13:45;96355.81;;;9.98;72.02
68137;BME280;54939;50.826;9.030;2024-02-23T02:14:15;96358.47;;;9.98;71.70
68137;BME280;54939;50.826;9.030;2024-02-23T02:14:46;96353.97;;;9.98;71.52
68137;BME280;54939;50.826;9.030;2024-02-23T02:15:16;96359.50;;;9.97;71.50
68137;BME280;54939;50.826;9.030;2024-02-23T02:15:46;96351.50;;;9.97;71.69
68137;BME280;54939;50.826;9.030;2024-02-23T02:16:16;96353.34;;;9.96;71.80
68137;BME280;54939;50.826;9.030;2024-02-23T02:16:46;96360.31;;;9.97;71.64
68137;BME280;54939;50.826;9.030;2024-02-23T02:17:17;96362.78;;;9.99;71.69
68137;BME280;54939;50.826;9.030;2024-02-23T02:17:47;96368.13;;;9.99;71.79
68137;BME280;54939;50.826;9.030;2024-02-23T02:18:17;96368.94;;;9.99;71.82
68137;BME280;54939;50.826;9.030;2024-02-23T02:18:48;96369.75;;;10.00;71.80
68137;BME280;54939;50.826;9.030;2024-02-23T02:19:19;96369.75;;;10.00;71.66
68137;BME280;54939;50.826;9.030;2024-02-23T02:19:49;96367.09;;;10.00;71.73
68137;BME280;54939;50.826;9.030;2024-02-23T02:20:19;96373.44;;;9.99;71.49
68137;BME280;54939;50.826;9.030;2024-02-23T02:20:54;96366.28;;;9.99;71.49
68137;BME280;54939;50.826;9.030;2024-02-23T02:21:25;96372.63;;;9.98;71.67
68137;BME280;54939;50.826;9.030;2024-02-23T02:21:55;96380.81;;;9.97;71.75
68137;BME280;54939;50.826;9.030;2024-02-23T02:22:25;96366.91;;;9.95;71.78
68137;BME280;54939;50.826;9.030;2024-02-23T02:22:56;96371.81;;;9.98;71.75
68137;BME280;54939;50.826;9.030;2024-02-23T02:23:26;96372.63;;;9.98;71.53
68137;BME280;54939;50.826;9.030;2024-02-23T02:23:56;96370.97;;;9.97;71.62
68137;BME280;54939;50.826;9.030;2024-02-23T02:24:26;96373.44;;;9.99;71.89
68137;BME280;54939;50.826;9.030;2024-02-23T02:24:56;96373.44;;;9.99;71.63
68137;BME280;54939;50.826;9.030;2024-02-23T02:25:27;96375.28;;;9.98;71.83
68137;BME280;54939;50.826;9.030;2024-02-23T02:25:57;96375.09;;;10.00;71.81
68137;BME280;54939;50.826;9.030;2024-02-23T02:26:27;96376.09;;;9.99;71.96
68137;BME280;54939;50.826;9.030;2024-02-23T02:26:58;96378.78;;;9.99;71.71
68137;BME280;54939;50.826;9.030;2024-02-23T02:27:28;96377.56;;;10.01;71.76
68137;BME280;54939;50.826;9.030;2024-02-23T02:27:58;96383.91;;;10.00;71.88
68137;BME280;54939;50.826;9.030;2024-02-23T02:28:28;96386.56;;;10.00;71.56
68137;BME280;54939;50.826;9.030;2024-02-23T02:28:58;96381.63;;;9.97;71.77
68137;BME280;54939;50.826;9.030;2024-02-23T02:29:29;96390.25;;;9.99;71.47
68137;BME280;54939;50.826;9.030;2024-02-23T02:29:59;96385.75;;;10.00;71.65
68137;BME280;54939;50.826;9.030;2024-02-23T02:30:29;96392.09;;;9.99;71.79
68137;BME280;54939;50.826;9.030;2024-02-23T02:30:59;96389.44;;;9.99;71.74
68137;BME280;54939;50.826;9.030;2024-02-23T02:31:29;96390.25;;;9.99;71.79
68137;BME280;54939;50.826;9.030;2024-02-23T02:32:00;96389.25;;;9.94;71.68
68137;BME280;54939;50.826;9.030;2024-02-23T02:32:30;96389.63;;;9.97;71.80
68137;BME280;54939;50.826;9.030;2024-02-23T02:33:00;96383.28;;;9.98;71.87
68137;BME280;54939;50.826;9.030;2024-02-23T02:33:31;96394.97;;;9.97;71.79
68137;BME280;54939;50.826;9.030;2024-02-23T02:34:01;96377.34;;;9.96;71.82
68137;BME280;54939;50.826;9.030;2024-02-23T02:34:31;96397.03;;;9.95;71.69
68137;BME280;54939;50.826;9.030;2024-02-23T02:35:01;96375.91;;;9.94;71.79
68137;BME280;54939;50.826;9.030;2024-02-23T02:35:31;96397.03;;;9.95;71.75
68137;BME280;54939;50.826;9.030;2024-02-23T02:36:01;96385.75;;;9.93;71.72
68137;BME280;54939;50.826;9.030;2024-02-23T02:36:32;96393.13;;;9.91;71.91
68137;BME280;54939;50.826;9.030;2024-02-23T02:37:02;96391.28;;;9.92;71.66
68137;BME280;54939;50.826;9.030;2024-02-23T02:37:32;96399.28;;;9.92;71.66
68137;BME280;54939;50.826;9.030;2024-02-23T02:38:02;96398.25;;;9.93;71.68
68137;BME280;54939;50.826;9.030;2024-02-23T02:38:32;96396.41;;;9.93;71.69
68137;BME280;54939;50.826;9.030;2024-02-23T02:39:05;96390.25;;;9.93;71.45
68137;BME280;54939;50.826;9.030;2024-02-23T02:39:37;96389.44;;;9.92;71.42
68137;BME280;54939;50.826;9.030;2024-02-23T02:40:07;96398.88;;;9.95;71.64
68137;BME280;54939;50.826;9.030;2024-02-23T02:40:37;96398.88;;;9.95;71.50
68137;BME280;54939;50.826;9.030;2024-02-23T02:41:08;96399.69;;;9.95;71.54
68137;BME280;54939;50.826;9.030;2024-02-23T02:41:38;96397.03;;;9.95;71.25
68137;BME280;54939;50.826;9.030;2024-02-23T02:42:09;96396.22;;;9.95;71.38
68137;BME280;54939;50.826;9.030;2024-02-23T02:42:39;96402.56;;;9.94;71.68
68137;BME280;54939;50.826;9.030;2024-02-23T02:43:09;96401.53;;;9.95;71.49